Time;durP1;ratioP1;P1;durP2;ratioP2;P2;SDS_P1;SDS_P2;PMS_P1;PMS_P2;Temp;Humidity;BMP_temperature;BMP_pressure;BME280_temperature;BME280_humidity;BME280_pressure;Samples;Min_cycle;Max_cycle;Signal;HPM_P1;HPM_P2
2022/06/27 00:01:48;;;;;;;;;;;;;;;-149.78;100.00;50119.41;5075109;28;19924;-74
2022/06/27 00:04:14;;;;;;;;;;;;;;;-149.78;100.00;50111.59;5096984;28;20065;-74
2022/06/27 00:06:39;;;;;;;;;;;;;;;-149.78;100.00;50127.25;5101249;28;19992;-74
2022/06/27 00:09:05;;;;;;;;;;;;;;;-149.78;100.00;50111.59;5092958;28;20455;-74
2022/06/27 00:11:31;;;;;;;;;;;;;;;-149.78;100.00;50119.41;5097339;28;19923;-74
2022/06/27 00:13:56;;;;;;;;;;;;;;;-149.78;100.00;50099.88;5095494;28;19975;-74
2022/06/27 00:16:22;;;;;;;;;;;;;;;-149.78;100.00;50138.97;5099591;28;20375;-74
2022/06/27 00:18:47;;;;;;;;;;;;;;;-149.78;100.00;50127.25;5099651;28;20660;-75
2022/06/27 00:21:13;;;;;;;;;;;;;;;-149.78;100.00;50109.66;5103809;28;19959;-74
2022/06/27 00:23:38;;;;;;;;;;;;;;;-149.78;100.00;50107.69;5108115;28;20033;-74
2022/06/27 00:26:04;;;;;;;;;;;;;;;-149.78;100.00;50111.59;5102374;28;19920;-74
2022/06/27 00:28:29;;;;;;;;;;;;;;;-149.78;100.00;50162.44;5102017;28;19919;-74
2022/06/27 00:30:55;;;;;;;;;;;;;;;-149.78;100.00;50125.28;5094317;28;19916;-74
2022/06/27 00:33:21;;;;;;;;;;;;;;;-149.78;100.00;50131.16;5096100;28;19916;-74
2022/06/27 00:35:46;;;;;;;;;;;;;;;-149.78;100.00;50158.53;5097424;28;19920;-74
2022/06/27 00:38:12;;;;;;;;;;;;;;;-149.78;100.00;50119.41;5093455;28;19969;-74
2022/06/27 00:40:37;;;;;;;;;;;;;;;-149.78;100.00;50117.47;5099106;28;19919;-74
2022/06/27 00:43:03;;;;;;;;;;;;;;;-149.78;100.00;50127.25;5089547;28;19955;-74
2022/06/27 00:45:28;;;;;;;;;;;;;;;-149.78;100.00;50138.97;5100248;28;19924;-74
2022/06/27 00:47:54;;;;;;;;;;;;;;;-149.78;100.00;50133.09;5093553;28;19976;-74
2022/06/27 00:50:19;;;;;;;;;;;;;;;-149.78;100.00;50107.69;5096309;28;19923;-74
2022/06/27 00:52:45;;;;;;;;;;;;;;;-149.78;100.00;50138.97;5097864;28;19927;-73
2022/06/27 00:55:10;;;;;;;;;;;;;;;-149.78;100.00;50135.06;5095292;28;20085;-73
2022/06/27 00:57:36;;;;;;;;;;;;;;;-149.78;100.00;50103.78;5099266;28;20020;-74
2022/06/27 01:00:03;;;;;;;;;;;;;;;-149.78;100.00;50127.25;5087506;28;19924;-74
2022/06/27 01:02:28;;;;;;;;;;;;;;;-149.78;100.00;50125.28;5096273;28;19920;-74
2022/06/27 01:04:54;;;;;;;;;;;;;;;-149.78;100.00;50125.28;5094260;28;19953;-74
2022/06/27 01:07:19;;;;;;;;;;;;;;;-149.78;100.00;50131.16;5097849;28;19919;-74
2022/06/27 01:09:45;;;;;;;;;;;;;;;-149.78;100.00;50127.25;5096377;28;19931;-73
2022/06/27 01:12:10;;;;;;;;;;;;;;;-149.78;100.00;50138.97;5098257;28;19919;-74
2022/06/27 01:14:36;;;;;;;;;;;;;;;-149.78;100.00;50148.75;5095563;28;19928;-74
2022/06/27 01:17:02;;;;;;;;;;;;;;;-149.78;100.00;50103.78;5096705;28;19930;-73
2022/06/27 01:19:28;;;;;;;;;;;;;;;-149.78;100.00;50154.63;5095961;28;19931;-74
2022/06/27 01:21:55;;;;;;;;;;;;;;;-149.78;100.00;50129.19;5093461;28;19924;-74
2022/06/27 01:24:22;;;;;;;;;;;;;;;-149.78;100.00;50121.38;5096323;28;19912;-73
2022/06/27 01:26:48;;;;;;;;;;;;;;;-149.78;100.00;50146.81;5085340;28;19927;-73
2022/06/27 01:29:14;;;;;;;;;;;;;;;-149.78;100.00;50105.72;5092007;28;19920;-73
2022/06/27 01:31:39;;;;;;;;;;;;;;;-149.78;100.00;50129.19;5091268;28;19947;-74
2022/06/27 01:34:06;;;;;;;;;;;;;;;-149.78;100.00;50121.38;5098219;28;19920;-73
2022/06/27 01:36:43;;;;;;;;;;;;;;;-149.78;100.00;50174.19;5091843;28;19919;-73
2022/06/27 01:39:13;;;;;;;;;;;;;;;-149.78;100.00;50123.34;5097287;28;19920;-73
2022/06/27 01:41:40;;;;;;;;;;;;;;;-149.78;100.00;50138.97;5087066;28;19926;-74
2022/06/27 01:44:07;;;;;;;;;;;;;;;-149.78;100.00;50135.06;5095972;28;19920;-74
2022/06/27 01:46:43;;;;;;;;;;;;;;;-149.78;100.00;50164.41;5092670;28;19923;-73
2022/06/27 01:49:10;;;;;;;;;;;;;;;-149.78;100.00;50103.78;5103619;28;20018;-74
2022/06/27 01:51:35;;;;;;;;;;;;;;;-149.78;100.00;50138.97;5099109;28;19920;-74
2022/06/27 01:54:01;;;;;;;;;;;;;;;-149.78;100.00;50166.34;5102049;28;19918;-74
2022/06/27 01:56:26;;;;;;;;;;;;;;;-149.78;100.00;50127.25;5099339;28;19919;-74
2022/06/27 01:58:57;;;;;;;;;;;;;;;-149.78;100.00;50107.69;5096783;28;19920;-74
2022/06/27 02:01:23;;;;;;;;;;;;;;;-149.78;100.00;50135.06;5096334;28;19990;-74
2022/06/27 02:03:48;;;;;;;;;;;;;;;-149.78;100.00;50138.97;5100630;28;20363;-74
2022/06/27 02:06:14;;;;;;;;;;;;;;;-149.78;100.00;50131.16;5101077;28;20727;-73
2022/06/27 02:08:41;;;;;;;;;;;;;;;-149.78;100.00;50119.41;5104346;28;19920;-73
2022/06/27 02:11:07;;;;;;;;;;;;;;;-149.78;100.00;50150.72;5096302;28;19970;-74
2022/06/27 02:13:33;;;;;;;;;;;;;;;-149.78;100.00;50135.06;5084998;28;19982;-73
2022/06/27 02:16:06;;;;;;;;;;;;;;;-149.78;100.00;50123.34;5100704;28;19916;-73
2022/06/27 02:18:33;;;;;;;;;;;;;;;-149.78;100.00;50115.50;5101254;28;19954;-73
2022/06/27 02:20:58;;;;;;;;;;;;;;;-149.78;100.00;50142.88;5099265;28;20018;-73
2022/06/27 02:23:24;;;;;;;;;;;;;;;-149.78;100.00;50158.53;5097514;28;19924;-74
2022/06/27 02:25:50;;;;;;;;;;;;;;;-149.78;100.00;50144.84;5089259;28;19920;-74
2022/06/27 02:28:16;;;;;;;;;;;;;;;-149.78;100.00;50113.56;5100655;28;20285;-73
2022/06/27 02:30:42;;;;;;;;;;;;;;;-149.78;100.00;50105.72;5100322;28;19971;-74
2022/06/27 02:33:09;;;;;;;;;;;;;;;-149.78;100.00;50189.81;5096950;28;19981;-73
2022/06/27 02:35:34;;;;;;;;;;;;;;;-149.78;100.00;50125.28;5100317;28;19916;-73
2022/06/27 02:38:01;;;;;;;;;;;;;;;-149.78;100.00;50111.59;5106039;28;19920;-73
2022/06/27 02:40:29;;;;;;;;;;;;;;;-149.78;100.00;50146.81;5099583;28;19924;-72
2022/06/27 02:42:57;;;;;;;;;;;;;;;-149.78;100.00;50135.06;5101320;28;20566;-73
2022/06/27 02:45:24;;;;;;;;;;;;;;;-149.78;100.00;50127.25;5096995;28;20348;-73
2022/06/27 02:47:50;;;;;;;;;;;;;;;-149.78;100.00;50146.81;5104773;28;19919;-74
2022/06/27 02:50:16;;;;;;;;;;;;;;;-149.78;100.00;50158.53;5099457;28;19927;-73
2022/06/27 03:00:27;;;;;;;;;;;;;;;;;;;;;
2022/06/27 03:45:40;;;;;;;;;;;;;;;-149.78;100.00;50138.97;3394547;26;20018;-69
2022/06/27 03:48:05;;;;;;;;;;;;;;;-149.78;100.00;50162.44;5085718;28;20411;-69
2022/06/27 03:50:31;;;;;;;;;;;;;;;-149.78;100.00;50125.28;5066825;28;19924;-69
2022/06/27 03:52:56;;;;;;;;;;;;;;;-149.78;100.00;50162.44;5085765;28;19924;-69
2022/06/27 03:55:23;;;;;;;;;;;;;;;-149.78;100.00;50127.25;5061812;28;19917;-69
2022/06/27 03:57:50;;;;;;;;;;;;;;;-149.78;100.00;50176.13;5092885;28;19926;-69
2022/06/27 04:00:16;;;;;;;;;;;;;;;-149.78;100.00;50154.63;5095452;28;20013;-69
2022/06/27 04:02:42;;;;;;;;;;;;;;;-149.78;100.00;50138.97;5091793;28;19966;-69
2022/06/27 04:05:07;;;;;;;;;;;;;;;-149.78;100.00;50154.63;5092878;28;19963;-69
2022/06/27 04:07:33;;;;;;;;;;;;;;;-149.78;100.00;50152.66;5083992;28;19924;-69
2022/06/27 04:09:58;;;;;;;;;;;;;;;-149.78;100.00;50156.56;5080037;28;19965;-69
2022/06/27 04:12:24;;;;;;;;;;;;;;;-149.78;100.00;50140.94;5084165;28;19924;-69
2022/06/27 04:14:50;;;;;;;;;;;;;;;-149.78;100.00;50162.44;5078954;28;20339;-69
2022/06/27 04:17:15;;;;;;;;;;;;;;;-149.78;100.00;50144.84;5080782;28;20497;-69
2022/06/27 04:19:40;;;;;;;;;;;;;;;-149.78;100.00;50133.09;5091799;28;19928;-69
2022/06/27 04:22:08;;;;;;;;;;;;;;;-149.78;100.00;50127.25;5077002;28;19924;-69
2022/06/27 04:24:35;;;;;;;;;;;;;;;-149.78;100.00;50119.41;5076959;28;19924;-69
2022/06/27 04:27:00;;;;;;;;;;;;;;;-149.78;100.00;50111.59;5093239;28;20686;-69
2022/06/27 04:29:26;;;;;;;;;;;;;;;-149.78;100.00;50144.84;5071582;28;19942;-69
2022/06/27 04:31:52;;;;;;;;;;;;;;;-149.78;100.00;50152.66;5087208;28;20429;-69
2022/06/27 04:34:17;;;;;;;;;;;;;;;-149.78;100.00;50135.06;5082819;28;19924;-69
2022/06/27 04:36:44;;;;;;;;;;;;;;;-149.78;100.00;50174.19;5076663;28;20306;-69
2022/06/27 04:39:13;;;;;;;;;;;;;;;-149.78;100.00;50158.53;5094237;28;19967;-69
2022/06/27 04:41:38;;;;;;;;;;;;;;;-149.78;100.00;50162.44;5088741;28;20542;-69
2022/06/27 04:44:04;;;;;;;;;;;;;;;-149.78;100.00;50170.25;5067813;28;19928;-69
2022/06/27 04:46:29;;;;;;;;;;;;;;;-149.78;100.00;50127.25;5088650;28;19931;-69
2022/06/27 04:48:56;;;;;;;;;;;;;;;-149.78;100.00;50142.88;5085474;28;19927;-69
2022/06/27 04:51:21;;;;;;;;;;;;;;;-149.78;100.00;50127.25;5074809;28;20287;-69
2022/06/27 04:53:48;;;;;;;;;;;;;;;-149.78;100.00;50138.97;5076824;28;19923;-69
2022/06/27 04:56:14;;;;;;;;;;;;;;;-149.78;100.00;50131.16;5063074;28;19920;-69
2022/06/27 04:58:39;;;;;;;;;;;;;;;-149.78;100.00;50158.53;5088828;28;19965;-71
2022/06/27 05:01:05;;;;;;;;;;;;;;;-149.78;100.00;50142.88;5089426;28;19939;-70
2022/06/27 05:03:30;;;;;;;;;;;;;;;-149.78;100.00;50138.97;5044678;28;19932;-70
2022/06/27 05:05:56;;;;;;;;;;;;;;;-149.78;100.00;50185.91;5080098;28;19975;-69
2022/06/27 05:08:22;;;;;;;;;;;;;;;-149.78;100.00;50162.44;5084771;28;19928;-69
2022/06/27 05:10:47;;;;;;;;;;;;;;;-149.78;100.00;50113.56;5064735;28;20497;-69
2022/06/27 05:13:13;;;;;;;;;;;;;;;-149.78;100.00;50115.50;5071889;28;19924;-69
2022/06/27 05:15:38;;;;;;;;;;;;;;;-149.78;100.00;50138.97;5081419;28;19924;-69
2022/06/27 05:18:04;;;;;;;;;;;;;;;-149.78;100.00;50146.81;5099893;28;19916;-69
2022/06/27 05:20:30;;;;;;;;;;;;;;;-149.78;100.00;50127.25;5065607;28;20010;-69
2022/06/27 05:23:01;;;;;;;;;;;;;;;-149.78;100.00;50095.94;5096046;28;19911;-69
2022/06/27 05:25:27;;;;;;;;;;;;;;;-149.78;100.00;50144.84;5064926;28;19985;-69
2022/06/27 05:27:52;;;;;;;;;;;;;;;-149.78;100.00;50166.34;5079763;28;19920;-69
2022/06/27 05:30:17;;;;;;;;;;;;;;;-149.78;100.00;50162.44;5090185;28;19920;-69
2022/06/27 05:32:43;;;;;;;;;;;;;;;-149.78;100.00;50150.72;5059740;28;20015;-69
2022/06/27 05:35:10;;;;;;;;;;;;;;;-149.78;100.00;50144.84;5060486;28;19972;-69
2022/06/27 05:37:37;;;;;;;;;;;;;;;-149.78;100.00;50154.63;5086607;28;19972;-69
2022/06/27 05:40:03;;;;;;;;;;;;;;;-149.78;100.00;50166.34;5093730;28;19919;-69
2022/06/27 05:42:29;;;;;;;;;;;;;;;-149.78;100.00;50166.34;5072381;28;19942;-69
2022/06/27 05:44:55;;;;;;;;;;;;;;;-149.78;100.00;50138.97;5087469;28;19975;-69
2022/06/27 05:47:21;;;;;;;;;;;;;;;-149.78;100.00;50137.03;5093552;28;19934;-69
2022/06/27 05:49:47;;;;;;;;;;;;;;;-149.78;100.00;50154.63;5081211;28;19916;-69
2022/06/27 05:52:13;;;;;;;;;;;;;;;-149.78;100.00;50127.25;5075647;28;19943;-69
2022/06/27 05:54:39;;;;;;;;;;;;;;;-149.78;100.00;50154.63;5081990;28;20271;-69
2022/06/27 05:57:05;;;;;;;;;;;;;;;-149.78;100.00;50138.97;5060690;28;19938;-69
2022/06/27 05:59:31;;;;;;;;;;;;;;;-149.78;100.00;50107.69;5078769;28;20360;-69
2022/06/27 06:01:59;;;;;;;;;;;;;;;-149.78;100.00;50135.06;5065884;28;19965;-68
2022/06/27 06:04:25;;;;;;;;;;;;;;;-149.78;100.00;50158.53;5078291;28;19956;-69
2022/06/27 06:06:51;;;;;;;;;;;;;;;-149.78;100.00;50166.34;5071609;28;19951;-69
2022/06/27 06:09:16;;;;;;;;;;;;;;;-149.78;100.00;50115.50;5057932;28;19932;-68
2022/06/27 06:11:42;;;;;;;;;;;;;;;-149.78;100.00;50142.88;5065573;28;19920;-69
2022/06/27 06:14:08;;;;;;;;;;;;;;;-149.78;100.00;50138.97;5060183;28;19931;-69
2022/06/27 06:16:34;;;;;;;;;;;;;;;-149.78;100.00;50131.16;5065109;28;20581;-69
2022/06/27 06:18:59;;;;;;;;;;;;;;;-149.78;100.00;50164.41;5057843;28;20379;-68
2022/06/27 06:21:25;;;;;;;;;;;;;;;-149.78;100.00;50119.41;5064071;28;19924;-68
2022/06/27 06:23:52;;;;;;;;;;;;;;;-149.78;100.00;50154.63;5068504;28;19927;-69
2022/06/27 06:26:17;;;;;;;;;;;;;;;-149.78;100.00;50162.44;5061928;28;19973;-69
2022/06/27 06:28:44;;;;;;;;;;;;;;;-149.78;100.00;50123.34;5063327;28;19924;-69
2022/06/27 06:31:10;;;;;;;;;;;;;;;-149.78;100.00;50154.63;5066509;28;19916;-69
2022/06/27 06:33:36;;;;;;;;;;;;;;;-149.78;100.00;50133.09;5080505;28;19982;-68
2022/06/27 06:36:01;;;;;;;;;;;;;;;-149.78;100.00;50133.09;5076186;28;19920;-69
2022/06/27 06:38:29;;;;;;;;;;;;;;;-149.78;100.00;50199.59;5079498;28;19924;-69
2022/06/27 06:40:55;;;;;;;;;;;;;;;-149.78;100.00;50150.72;5076235;28;19920;-69
2022/06/27 06:43:20;;;;;;;;;;;;;;;-149.78;100.00;50129.19;5053137;28;20391;-69
2022/06/27 06:45:46;;;;;;;;;;;;;;;-149.78;100.00;50127.25;5061235;28;19933;-69
2022/06/27 06:48:14;;;;;;;;;;;;;;;-149.78;100.00;50095.94;5034028;28;19917;-69
2022/06/27 06:50:41;;;;;;;;;;;;;;;-149.78;100.00;50146.81;5051653;28;20016;-69
2022/06/27 06:53:06;;;;;;;;;;;;;;;-149.78;100.00;50146.81;5054916;28;20255;-69
2022/06/27 06:55:32;;;;;;;;;;;;;;;-149.78;100.00;50103.78;5051075;28;19925;-69
2022/06/27 06:57:57;;;;;;;;;;;;;;;-149.78;100.00;50125.28;5051767;28;20031;-69
2022/06/27 07:00:23;;;;;;;;;;;;;;;-149.78;100.00;50127.25;5062153;28;19967;-70
2022/06/27 07:02:50;;;;;;;;;;;;;;;-149.78;100.00;50131.16;5049800;28;19928;-69
2022/06/27 07:05:16;;;;;;;;;;;;;;;-149.78;100.00;50119.41;5064175;28;20372;-69
2022/06/27 07:07:43;;;;;;;;;;;;;;;-149.78;100.00;50140.94;5056221;28;19931;-69
2022/06/27 07:10:12;;;;;;;;;;;;;;;-149.78;100.00;50176.13;5055111;28;19974;-69
2022/06/27 07:12:38;;;;;;;;;;;;;;;-149.78;100.00;50127.25;5057368;28;19939;-69
2022/06/27 07:15:05;;;;;;;;;;;;;;;-149.78;100.00;50107.69;5052963;28;20047;-69
2022/06/27 07:17:45;;;;;;;;;;;;;;;-149.78;100.00;50107.69;5059002;28;19978;-69
2022/06/27 07:20:12;;;;;;;;;;;;;;;-149.78;100.00;50115.50;5039809;28;19931;-69
2022/06/27 07:22:42;;;;;;;;;;;;;;;-149.78;100.00;50135.06;5059825;28;19929;-69
2022/06/27 07:25:08;;;;;;;;;;;;;;;-149.78;100.00;50123.34;5061710;28;20642;-69
2022/06/27 07:27:34;;;;;;;;;;;;;;;-149.78;100.00;50138.97;5046900;28;19959;-69
2022/06/27 07:30:00;;;;;;;;;;;;;;;-149.78;100.00;50150.72;5055544;28;19952;-69
2022/06/27 07:32:27;;;;;;;;;;;;;;;-149.78;100.00;50135.06;5058220;28;19924;-69
2022/06/27 07:34:54;;;;;;;;;;;;;;;-149.78;100.00;50135.06;5046194;28;20524;-69
2022/06/27 07:37:20;;;;;;;;;;;;;;;-149.78;100.00;50119.41;5083360;28;20302;-69
2022/06/27 07:39:45;;;;;;;;;;;;;;;-149.78;100.00;50148.75;5036365;28;19987;-69
2022/06/27 07:42:11;;;;;;;;;;;;;;;-149.78;100.00;50131.16;5047662;28;19929;-69
2022/06/27 07:44:38;;;;;;;;;;;;;;;-149.78;100.00;50135.06;5068505;28;19971;-69
2022/06/27 07:47:04;;;;;;;;;;;;;;;-149.78;100.00;50103.78;5045763;28;19936;-69
2022/06/27 07:49:30;;;;;;;;;;;;;;;-149.78;100.00;50152.66;5065971;28;19920;-69
2022/06/27 07:51:56;;;;;;;;;;;;;;;-149.78;100.00;50111.59;5068986;28;19959;-69
2022/06/27 07:54:22;;;;;;;;;;;;;;;-149.78;100.00;50119.41;5066370;28;19963;-69
2022/06/27 07:56:49;;;;;;;;;;;;;;;-149.78;100.00;50080.31;5068312;28;19916;-69
2022/06/27 07:59:15;;;;;;;;;;;;;;;-149.78;100.00;50123.34;5049862;28;19920;-69
2022/06/27 08:01:41;;;;;;;;;;;;;;;-149.78;100.00;50150.72;5067854;28;20347;-69
2022/06/27 08:04:08;;;;;;;;;;;;;;;-149.78;100.00;50095.94;5066043;28;20013;-69
2022/06/27 08:06:34;;;;;;;;;;;;;;;-149.78;100.00;50121.38;5067958;28;19931;-69
2022/06/27 08:09:01;;;;;;;;;;;;;;;-149.78;100.00;50103.78;5046427;28;19920;-69
2022/06/27 08:11:28;;;;;;;;;;;;;;;-149.78;100.00;50094.00;5066549;28;19916;-69
2022/06/27 08:13:55;;;;;;;;;;;;;;;-149.78;100.00;50131.16;5059027;28;19928;-69
2022/06/27 08:16:22;;;;;;;;;;;;;;;-149.78;100.00;50138.97;5046465;28;19919;-69
2022/06/27 08:18:49;;;;;;;;;;;;;;;-149.78;100.00;50140.94;5059121;28;19925;-69
2022/06/27 08:21:17;;;;;;;;;;;;;;;-149.78;100.00;50129.19;5042687;28;19960;-69
2022/06/27 08:23:44;;;;;;;;;;;;;;;-149.78;100.00;50119.41;5054955;28;19920;-69
2022/06/27 08:26:12;;;;;;;;;;;;;;;-149.78;100.00;50138.97;5049719;28;19931;-69
2022/06/27 08:28:39;;;;;;;;;;;;;;;-149.78;100.00;50125.28;5048643;28;19928;-69
2022/06/27 08:31:07;;;;;;;;;;;;;;;-149.78;100.00;50103.78;5062609;28;19928;-69
2022/06/27 08:33:33;;;;;;;;;;;;;;;-149.78;100.00;50125.28;5048959;28;19920;-69
2022/06/27 08:35:59;;;;;;;;;;;;;;;-149.78;100.00;50131.16;5041956;28;19920;-70
2022/06/27 08:38:25;;;;;;;;;;;;;;;-149.78;100.00;50146.81;5055306;28;19982;-69
2022/06/27 08:40:52;;;;;;;;;;;;;;;-149.78;100.00;50131.16;5055013;28;19925;-69
2022/06/27 08:43:18;;;;;;;;;;;;;;;-149.78;100.00;50119.41;5067329;28;20407;-69
2022/06/27 08:45:46;;;;;;;;;;;;;;;-149.78;100.00;50135.06;5067146;28;20069;-70
2022/06/27 08:48:13;;;;;;;;;;;;;;;-149.78;100.00;50111.59;5048686;28;19917;-69
2022/06/27 08:50:39;;;;;;;;;;;;;;;-149.78;100.00;50140.94;5067076;28;20049;-70
2022/06/27 08:53:04;;;;;;;;;;;;;;;-149.78;100.00;50119.41;5067130;28;20065;-70
2022/06/27 08:55:31;;;;;;;;;;;;;;;-149.78;100.00;50131.16;5066135;28;19921;-69
2022/06/27 08:57:59;;;;;;;;;;;;;;;-149.78;100.00;50099.88;5060431;28;19920;-69
2022/06/27 09:00:25;;;;;;;;;;;;;;;-149.78;100.00;50076.41;5066210;28;20007;-69
2022/06/27 09:02:51;;;;;;;;;;;;;;;-149.78;100.00;50072.50;5040707;28;20439;-69
2022/06/27 09:05:22;;;;;;;;;;;;;;;-149.78;100.00;50107.69;5047642;28;19974;-69
2022/06/27 09:07:48;;;;;;;;;;;;;;;-149.78;100.00;50115.50;5055792;28;20015;-69
2022/06/27 09:10:34;;;;;;;;;;;;;;;-149.78;100.00;50115.50;5062940;28;19916;-69
2022/06/27 09:13:00;;;;;;;;;;;;;;;-149.78;100.00;50111.59;5062128;28;19917;-69
2022/06/27 09:15:46;;;;;;;;;;;;;;;-149.78;100.00;50137.03;5067129;28;19920;-69
2022/06/27 09:18:12;;;;;;;;;;;;;;;-149.78;100.00;50088.13;5065358;28;20376;-69
2022/06/27 09:20:47;;;;;;;;;;;;;;;-149.78;100.00;50111.59;5059940;28;20079;-69
2022/06/27 09:23:32;;;;;;;;;;;;;;;-149.78;100.00;50088.13;5052661;28;19920;-68
2022/06/27 09:25:58;;;;;;;;;;;;;;;-149.78;100.00;50064.66;5054988;28;20810;-69
2022/06/27 09:28:36;;;;;;;;;;;;;;;-149.78;100.00;50095.94;5035691;28;19956;-69
2022/06/27 09:31:01;;;;;;;;;;;;;;;-149.78;100.00;50097.91;5054766;28;20421;-69
2022/06/27 09:33:31;;;;;;;;;;;;;;;-149.78;100.00;50113.56;5056711;28;20015;-69
2022/06/27 09:35:56;;;;;;;;;;;;;;;-149.78;100.00;50103.78;5030267;28;20737;-69
2022/06/27 09:38:22;;;;;;;;;;;;;;;-149.78;100.00;50121.38;5055376;28;19920;-69
2022/06/27 09:40:49;;;;;;;;;;;;;;;-149.78;100.00;50099.88;5066478;28;19913;-72
2022/06/27 09:43:16;;;;;;;;;;;;;;;-149.78;100.00;50097.91;5065536;28;20288;-73
2022/06/27 09:45:42;;;;;;;;;;;;;;;-149.78;100.00;50095.94;5066444;28;19939;-72
2022/06/27 09:48:08;;;;;;;;;;;;;;;-149.78;100.00;50099.88;5059123;28;19917;-72
2022/06/27 09:50:35;;;;;;;;;;;;;;;-149.78;100.00;50101.81;5047494;28;19931;-72
2022/06/27 09:53:01;;;;;;;;;;;;;;;-149.78;100.00;50099.88;5044095;28;20263;-72
2022/06/27 09:55:28;;;;;;;;;;;;;;;-149.78;100.00;50127.25;5061356;28;19978;-71
2022/06/27 09:57:55;;;;;;;;;;;;;;;-149.78;100.00;50123.34;5063556;28;19942;-72
2022/06/27 10:00:21;;;;;;;;;;;;;;;-149.78;100.00;50138.97;5065956;28;20346;-71
2022/06/27 10:02:48;;;;;;;;;;;;;;;-149.78;100.00;50111.59;5062903;28;19924;-71
2022/06/27 10:05:16;;;;;;;;;;;;;;;-149.78;100.00;50154.63;5062058;28;19979;-71
2022/06/27 10:07:44;;;;;;;;;;;;;;;-149.78;100.00;50154.63;5072106;28;19999;-71
2022/06/27 10:10:09;;;;;;;;;;;;;;;-149.78;100.00;50127.25;5069783;28;19940;-71
2022/06/27 10:12:36;;;;;;;;;;;;;;;-149.78;100.00;50152.66;5075776;28;19955;-70
2022/06/27 10:15:11;;;;;;;;;;;;;;;-149.78;100.00;50178.09;5067334;28;19978;-70
2022/06/27 10:17:43;;;;;;;;;;;;;;;-149.78;100.00;50185.91;5045889;28;19925;-70
2022/06/27 10:20:21;;;;;;;;;;;;;;;-149.78;100.00;50125.28;5070191;28;19958;-70
2022/06/27 10:23:04;;;;;;;;;;;;;;;-149.78;100.00;50189.81;5067471;28;19924;-70
2022/06/27 10:25:30;;;;;;;;;;;;;;;-149.78;100.00;50138.97;5067142;28;19921;-70
2022/06/27 10:28:11;;;;;;;;;;;;;;;-149.78;100.00;50146.81;5069193;28;19925;-70
2022/06/27 10:30:47;;;;;;;;;;;;;;;-149.78;100.00;50154.63;5068801;28;19936;-70
2022/06/27 10:33:19;;;;;;;;;;;;;;;-149.78;100.00;50170.25;5063770;28;19917;-70
2022/06/27 10:38:26;;;;;;;;;;;;;;;-149.78;100.00;50174.19;5068816;28;19939;-70
2022/06/27 10:40:52;;;;;;;;;;;;;;;-149.78;100.00;50182.00;5067545;28;20009;-71
2022/06/27 10:43:47;;;;;;;;;;;;;;;-149.78;100.00;50180.03;5050928;28;20578;-70
2022/06/27 10:46:13;;;;;;;;;;;;;;;-149.78;100.00;50164.41;5051579;28;19931;-70
2022/06/27 10:48:48;;;;;;;;;;;;;;;-149.78;100.00;50201.56;5069848;28;19925;-70
2022/06/27 10:51:22;;;;;;;;;;;;;;;-149.78;100.00;50170.25;5063860;28;19940;-71
2022/06/27 10:53:48;;;;;;;;;;;;;;;-149.78;100.00;50189.81;5051311;28;19979;-70
2022/06/27 10:56:31;;;;;;;;;;;;;;;-149.78;100.00;50170.25;5066436;28;19917;-71
2022/06/27 10:59:01;;;;;;;;;;;;;;;-149.78;100.00;50197.66;5072207;28;19913;-70
2022/06/27 11:01:27;;;;;;;;;;;;;;;-149.78;100.00;50154.63;5061275;28;19920;-70
2022/06/27 11:03:53;;;;;;;;;;;;;;;-149.78;100.00;50174.19;5064127;28;19923;-70
2022/06/27 11:06:19;;;;;;;;;;;;;;;-149.78;100.00;50154.63;5047108;28;19925;-70
2022/06/27 11:08:48;;;;;;;;;;;;;;;-149.78;100.00;50174.19;5054296;28;19956;-71
2022/06/27 11:11:20;;;;;;;;;;;;;;;-149.78;100.00;50170.25;5059280;28;20390;-70
2022/06/27 11:13:47;;;;;;;;;;;;;;;-149.78;100.00;50148.75;5060775;28;19927;-70
2022/06/27 11:16:14;;;;;;;;;;;;;;;-149.78;100.00;50146.81;5057891;28;19920;-70
2022/06/27 11:18:41;;;;;;;;;;;;;;;-149.78;100.00;50140.94;5059622;28;19928;-70
2022/06/27 11:21:11;;;;;;;;;;;;;;;-149.78;100.00;50166.34;5056506;28;19924;-70
2022/06/27 11:23:49;;;;;;;;;;;;;;;-149.78;100.00;50146.81;5042383;28;19995;-69
2022/06/27 11:26:15;;;;;;;;;;;;;;;-149.78;100.00;50158.53;5033858;28;20448;-70
2022/06/27 11:34:10;;;;;;;;;;;;;;;-149.78;100.00;50109.66;5068844;28;20547;-70
2022/06/27 11:36:37;;;;;;;;;;;;;;;-149.78;100.00;50123.34;5063322;28;19956;-70
2022/06/27 11:39:02;;;;;;;;;;;;;;;-149.78;100.00;50127.25;5059536;28;19939;-70
2022/06/27 11:41:30;;;;;;;;;;;;;;;-149.78;100.00;50088.13;5039675;28;19924;-70
2022/06/27 11:43:58;;;;;;;;;;;;;;;-149.78;100.00;50103.78;5044800;28;20040;-70
2022/06/27 11:46:35;;;;;;;;;;;;;;;-149.78;100.00;50166.34;5058950;28;19974;-70
2022/06/27 11:49:01;;;;;;;;;;;;;;;-149.78;100.00;50131.16;5055920;28;19924;-70
2022/06/27 11:51:28;;;;;;;;;;;;;;;-149.78;100.00;50135.06;5059900;28;19916;-70
2022/06/27 11:53:54;;;;;;;;;;;;;;;-149.78;100.00;50119.41;5058896;28;20081;-70
2022/06/27 11:56:22;;;;;;;;;;;;;;;-149.78;100.00;50156.56;5056100;28;19921;-70
2022/06/27 11:59:06;;;;;;;;;;;;;;;-149.78;100.00;50123.34;5054703;28;19920;-70
2022/06/27 12:01:36;;;;;;;;;;;;;;;-149.78;100.00;50092.03;5057095;28;19916;-69
2022/06/27 12:04:08;;;;;;;;;;;;;;;-149.78;100.00;50135.06;5050252;28;19924;-70
2022/06/27 12:06:44;;;;;;;;;;;;;;;-149.78;100.00;50146.81;5061317;28;19986;-70
2022/06/27 12:09:10;;;;;;;;;;;;;;;-149.78;100.00;50138.97;5061358;28;19920;-69
2022/06/27 12:11:36;;;;;;;;;;;;;;;-149.78;100.00;50131.16;5068267;28;19924;-70
2022/06/27 12:14:01;;;;;;;;;;;;;;;-149.78;100.00;50142.88;5067005;28;19928;-70
2022/06/27 12:16:27;;;;;;;;;;;;;;;-149.78;100.00;50135.06;5060232;28;19928;-69
2022/06/27 12:18:53;;;;;;;;;;;;;;;-149.78;100.00;50088.13;5053000;28;19971;-69
2022/06/27 12:21:20;;;;;;;;;;;;;;;-149.78;100.00;50127.25;5061741;28;19921;-71
2022/06/27 12:23:46;;;;;;;;;;;;;;;-149.78;100.00;50119.41;5045083;28;20403;-68
2022/06/27 12:26:12;;;;;;;;;;;;;;;-149.78;100.00;50107.69;5043912;28;20389;-71
2022/06/27 12:28:39;;;;;;;;;;;;;;;-149.78;100.00;50146.81;5064209;28;20272;-70
2022/06/27 12:31:05;;;;;;;;;;;;;;;-149.78;100.00;50123.34;5068002;28;19920;-70
2022/06/27 12:33:30;;;;;;;;;;;;;;;-149.78;100.00;50150.72;5067344;28;19932;-70
2022/06/27 12:35:56;;;;;;;;;;;;;;;-149.78;100.00;50123.34;5066543;28;20031;-70
2022/06/27 12:38:21;;;;;;;;;;;;;;;-149.78;100.00;50094.00;5065413;28;19931;-69
2022/06/27 12:40:48;;;;;;;;;;;;;;;-149.78;100.00;50142.88;5058926;28;20348;-71
2022/06/27 12:43:13;;;;;;;;;;;;;;;-149.78;100.00;50131.16;5057572;28;20003;-69
2022/06/27 12:45:40;;;;;;;;;;;;;;;-149.78;100.00;50158.53;5054925;28;19994;-71
2022/06/27 12:48:06;;;;;;;;;;;;;;;-149.78;100.00;50123.34;5063477;28;19960;-70
2022/06/27 12:50:32;;;;;;;;;;;;;;;-149.78;100.00;50150.72;5059249;28;19917;-69
2022/06/27 12:52:57;;;;;;;;;;;;;;;-149.78;100.00;50138.97;5053273;28;20565;-70
2022/06/27 12:55:23;;;;;;;;;;;;;;;-149.78;100.00;50164.41;5054568;28;19929;-70
2022/06/27 12:57:48;;;;;;;;;;;;;;;-149.78;100.00;50166.34;5053960;28;19912;-70
2022/06/27 13:00:14;;;;;;;;;;;;;;;-149.78;100.00;50107.69;5055100;28;19932;-70
2022/06/27 13:02:39;;;;;;;;;;;;;;;-149.78;100.00;50135.06;5039363;28;19919;-71
2022/06/27 13:05:05;;;;;;;;;;;;;;;-149.78;100.00;50129.19;5048302;28;19978;-70
2022/06/27 13:07:31;;;;;;;;;;;;;;;-149.78;100.00;50123.34;5064914;28;19990;-69
2022/06/27 13:09:56;;;;;;;;;;;;;;;-149.78;100.00;50092.03;5066428;28;20360;-69
2022/06/27 13:12:22;;;;;;;;;;;;;;;-149.78;100.00;50080.31;5048702;28;19920;-69
2022/06/27 13:14:47;;;;;;;;;;;;;;;-149.78;100.00;50052.94;5056104;28;19927;-69
2022/06/27 13:17:12;;;;;;;;;;;;;;;-149.78;100.00;50097.91;5060649;28;19928;-69